createdAt,value
2023-11-09T00:01:11.793Z,101953.94
2023-11-09T00:03:40.126Z,101955.81
2023-11-09T00:06:08.555Z,101952.47
2023-11-09T00:08:37.070Z,101955.41
2023-11-09T00:11:05.973Z,101949.38
2023-11-09T00:13:34.217Z,101954.09
2023-11-09T00:16:02.545Z,101952.56
2023-11-09T00:18:32.663Z,101955.44
2023-11-09T00:21:00.964Z,101957.44
2023-11-09T00:23:29.245Z,101952.34
2023-11-09T00:25:57.603Z,101958.88
2023-11-09T00:28:25.848Z,101968.97
2023-11-09T00:30:54.202Z,101963.88
2023-11-09T00:33:22.553Z,101957.88
2023-11-09T00:35:51.892Z,101953.81
2023-11-09T00:38:21.813Z,101954.03
2023-11-09T00:40:50.710Z,101954.31
2023-11-09T00:43:19.027Z,101946.41
2023-11-09T00:45:47.883Z,101942.13
2023-11-09T00:48:18.432Z,101955.03
2023-11-09T00:50:46.919Z,101956.94
2023-11-09T00:53:15.340Z,101955.41
2023-11-09T00:55:44.110Z,101947.63
2023-11-09T00:58:12.560Z,101946.16
2023-11-09T01:00:41.065Z,101953.63
2023-11-09T01:03:09.413Z,101965.47
2023-11-09T01:05:37.949Z,101958.63
2023-11-09T01:08:06.748Z,101962.28
2023-11-09T01:10:35.042Z,101969.69
2023-11-09T01:13:03.936Z,101969.97
2023-11-09T01:15:32.357Z,101973.81
2023-11-09T01:18:10.213Z,101980.31
2023-11-09T01:20:38.750Z,101984.88
2023-11-09T01:23:09.884Z,101985.94
2023-11-09T01:25:38.234Z,101991.41
2023-11-09T01:28:07.092Z,101984.34
2023-11-09T01:30:35.429Z,101983.53
2023-11-09T01:33:05.791Z,101988.03
2023-11-09T01:35:34.710Z,101991.66
2023-11-09T01:38:03.126Z,102000.75
2023-11-09T01:40:32.164Z,101999.13
2023-11-09T01:43:00.736Z,101999.16
2023-11-09T01:45:29.801Z,102006.38
2023-11-09T01:47:58.351Z,102004.75
2023-11-09T01:50:26.988Z,102000.34
2023-11-09T01:52:56.737Z,102010.25
2023-11-09T01:55:25.525Z,102009.47
2023-11-09T01:57:54.702Z,102007.81
2023-11-09T02:00:23.182Z,102022.22
2023-11-09T02:02:54.923Z,102026.06
2023-11-09T02:05:27.504Z,102019.44
2023-11-09T02:07:56.302Z,102026.06
2023-11-09T02:10:25.034Z,102026.38
2023-11-09T02:12:53.603Z,102030.09
2023-11-09T02:15:21.952Z,102040.03
2023-11-09T02:17:50.374Z,102040.09
2023-11-09T02:20:18.727Z,102044.06
2023-11-09T02:22:49.200Z,102042.53
2023-11-09T02:25:18.304Z,102041.00
2023-11-09T02:27:46.961Z,102042.88
2023-11-09T02:30:15.525Z,102041.16
2023-11-09T02:32:43.945Z,102045.66
2023-11-09T02:35:12.387Z,102049.34
2023-11-09T02:37:41.045Z,102049.50
2023-11-09T02:40:10.469Z,102046.03
2023-11-09T02:42:38.936Z,102049.66
2023-11-09T02:45:08.331Z,102046.25
2023-11-09T02:47:37.003Z,102049.03
2023-11-09T02:50:06.138Z,102058.03
2023-11-09T02:52:34.464Z,102065.31
2023-11-09T02:55:02.917Z,102062.84
2023-11-09T02:57:32.168Z,102054.97
2023-11-09T03:00:01.529Z,102055.97
2023-11-09T03:02:30.054Z,102065.81
2023-11-09T03:04:58.445Z,102073.09
2023-11-09T03:07:27.527Z,102075.81
2023-11-09T03:09:57.111Z,102071.50
2023-11-09T03:12:25.382Z,102065.28
2023-11-09T03:14:53.703Z,102066.19
2023-11-09T03:17:22.590Z,102062.72
2023-11-09T03:19:50.855Z,102061.06
2023-11-09T03:22:19.168Z,102063.00
2023-11-09T03:24:47.531Z,102071.25
2023-11-09T03:27:15.866Z,102059.88
2023-11-09T03:29:44.140Z,102069.91
2023-11-09T03:32:13.321Z,102075.47
2023-11-09T03:34:41.953Z,102073.84
2023-11-09T03:37:10.230Z,102072.28
2023-11-09T03:39:38.911Z,102068.03
2023-11-09T03:42:07.534Z,102075.34
2023-11-09T03:44:39.618Z,102065.78
2023-11-09T03:47:08.312Z,102063.28
2023-11-09T03:49:43.865Z,102064.34
2023-11-09T03:52:12.736Z,102064.41
2023-11-09T03:54:41.108Z,102060.97
2023-11-09T03:57:09.891Z,102072.66
2023-11-09T03:59:38.230Z,102075.34
2023-11-09T04:02:06.542Z,102072.84
2023-11-09T04:04:34.890Z,102075.66
2023-11-09T04:07:03.301Z,102074.94
2023-11-09T04:09:31.962Z,102080.38
2023-11-09T04:12:00.284Z,102084.91
2023-11-09T04:14:28.618Z,102092.16
2023-11-09T04:16:56.908Z,102097.56
2023-11-09T04:19:25.428Z,102091.47
2023-11-09T04:21:54.885Z,102089.81
2023-11-09T04:24:23.128Z,102086.38
2023-11-09T04:26:51.440Z,102089.13
2023-11-09T04:29:22.129Z,102088.38
2023-11-09T04:31:50.375Z,102094.72
2023-11-09T04:34:18.743Z,102101.03
2023-11-09T04:36:51.758Z,102101.13
2023-11-09T04:39:30.039Z,102100.31
2023-11-09T04:42:06.340Z,102101.31
2023-11-09T04:44:34.680Z,102103.22
2023-11-09T04:47:10.631Z,102103.31
2023-11-09T04:49:47.313Z,102101.66
2023-11-09T04:52:18.696Z,102104.47
2023-11-09T04:54:47.739Z,102109.88
2023-11-09T04:57:35.139Z,102112.66
2023-11-09T05:00:21.675Z,102117.16
2023-11-09T05:03:08.378Z,102119.88
2023-11-09T05:05:55.397Z,102120.81
2023-11-09T05:08:23.684Z,102124.44
2023-11-09T05:10:51.961Z,102119.16
2023-11-09T05:13:20.802Z,102116.56
2023-11-09T05:15:49.068Z,102120.19
2023-11-09T05:18:17.620Z,102120.28
2023-11-09T05:20:45.881Z,102128.34
2023-11-09T05:23:14.301Z,102131.06
2023-11-09T05:25:45.593Z,102129.34
2023-11-09T05:28:14.392Z,102133.78
2023-11-09T05:30:42.713Z,102138.28
2023-11-09T05:33:11.058Z,102133.00
2023-11-09T05:35:39.369Z,102128.66
2023-11-09T05:38:07.678Z,102125.19
2023-11-09T05:40:36.052Z,102127.91
2023-11-09T05:43:04.436Z,102127.97
2023-11-09T05:45:32.695Z,102132.44
2023-11-09T05:48:01.154Z,102136.03
2023-11-09T05:50:29.586Z,102132.53
2023-11-09T05:52:57.844Z,102132.56
2023-11-09T05:55:26.174Z,102137.03
2023-11-09T05:57:54.511Z,102133.56
2023-11-09T06:00:23.306Z,102130.91
2023-11-09T06:02:51.521Z,102136.28
2023-11-09T06:05:20.106Z,102136.31
2023-11-09T06:07:48.378Z,102139.84
2023-11-09T06:10:16.717Z,102135.50
2023-11-09T06:12:45.011Z,102139.94
2023-11-09T06:15:15.707Z,102138.22
2023-11-09T06:17:45.948Z,102134.78
2023-11-09T06:20:15.056Z,102138.34
2023-11-09T06:22:43.713Z,102132.16
2023-11-09T06:25:13.871Z,102132.19
2023-11-09T06:27:43.420Z,102137.53
2023-11-09T06:30:12.654Z,102120.78
2023-11-09T06:32:42.403Z,102135.84
2023-11-09T06:35:16.164Z,102127.91
2023-11-09T06:37:47.248Z,102131.44
2023-11-09T06:40:18.849Z,102127.94
2023-11-09T06:42:51.980Z,102131.47
2023-11-09T06:45:20.598Z,102128.91
2023-11-09T06:47:49.272Z,102128.91
2023-11-09T06:50:21.111Z,102128.97
2023-11-09T06:52:50.276Z,102116.63
2023-11-09T06:55:18.820Z,102115.75
2023-11-09T06:57:47.995Z,102113.13
2023-11-09T07:00:16.950Z,102117.56
2023-11-09T07:02:52.136Z,102123.78
2023-11-09T07:05:21.987Z,102124.69
2023-11-09T07:07:51.783Z,102124.69
2023-11-09T07:10:22.984Z,102118.50
2023-11-09T07:12:51.317Z,102116.75
2023-11-09T07:15:19.875Z,102122.09
2023-11-09T07:17:48.093Z,102114.19
2023-11-09T07:20:16.532Z,102114.19
2023-11-09T07:22:45.339Z,102116.88
2023-11-09T07:25:14.389Z,102107.19
2023-11-09T07:27:42.995Z,102110.72
2023-11-09T07:30:12.037Z,102116.91
2023-11-09T07:32:40.402Z,102112.47
2023-11-09T07:35:11.105Z,102101.94
2023-11-09T07:37:39.697Z,102103.72
2023-11-09T07:40:12.042Z,102104.56
2023-11-09T07:42:40.413Z,102105.47
2023-11-09T07:45:11.650Z,102108.13
2023-11-09T07:47:40.126Z,102100.19
2023-11-09T07:50:11.614Z,102097.56
2023-11-09T07:52:40.234Z,102097.56
2023-11-09T07:55:09.560Z,102098.47
2023-11-09T07:57:37.897Z,102092.28
2023-11-09T08:00:08.400Z,102089.63
2023-11-09T08:02:36.683Z,102089.66
2023-11-09T08:05:06.908Z,102091.41
2023-11-09T08:07:35.555Z,102089.66
2023-11-09T08:10:04.013Z,102081.72
2023-11-09T08:12:34.249Z,102094.06
2023-11-09T08:15:06.700Z,102087.91
2023-11-09T08:17:35.000Z,102088.81
2023-11-09T08:20:03.806Z,102087.03
2023-11-09T08:22:32.228Z,102088.81
2023-11-09T08:25:01.213Z,102080.88
2023-11-09T08:27:29.430Z,102083.53
2023-11-09T08:29:58.633Z,102082.66
2023-11-09T08:32:29.471Z,102080.91
2023-11-09T08:34:58.064Z,102080.03
2023-11-09T08:37:26.389Z,102080.03
2023-11-09T08:39:54.621Z,102078.25
2023-11-09T08:42:22.904Z,102073.88
2023-11-09T08:44:51.177Z,102071.22
2023-11-09T08:47:23.363Z,102074.78
2023-11-09T08:49:51.589Z,102070.34
2023-11-09T08:52:19.808Z,102066.84
2023-11-09T08:54:48.125Z,102068.59
2023-11-09T08:57:17.207Z,102057.16
2023-11-09T08:59:45.780Z,102062.47
2023-11-09T09:02:13.945Z,102058.94
2023-11-09T09:04:42.281Z,102056.28
2023-11-09T09:07:11.989Z,102065.97
2023-11-09T09:09:46.802Z,102061.59
2023-11-09T09:12:17.774Z,102071.28
2023-11-09T09:14:48.449Z,102065.97
2023-11-09T09:17:18.902Z,102062.47
2023-11-09T09:19:48.293Z,102065.09
2023-11-09T09:22:16.672Z,102063.34
2023-11-09T09:24:44.919Z,102068.59
2023-11-09T09:27:13.129Z,102065.09
2023-11-09T09:29:41.820Z,102066.88
2023-11-09T09:32:10.295Z,102072.16
2023-11-09T09:34:38.576Z,102068.63
2023-11-09T09:37:12.590Z,102073.03
2023-11-09T09:39:41.639Z,102079.19
2023-11-09T09:42:10.447Z,102075.69
2023-11-09T09:44:40.313Z,102073.91
2023-11-09T09:47:09.806Z,102071.28
2023-11-09T09:49:38.373Z,102068.59
2023-11-09T09:52:06.826Z,102068.63
2023-11-09T09:54:35.894Z,102067.75
2023-11-09T09:57:05.607Z,102069.47
2023-11-09T09:59:34.777Z,102073.88
2023-11-09T10:02:08.111Z,102065.09
2023-11-09T10:04:37.612Z,102065.97
2023-11-09T10:07:06.189Z,102057.19
2023-11-09T10:09:34.637Z,102066.84
2023-11-09T10:12:07.935Z,102058.03
2023-11-09T10:14:37.378Z,102058.03
2023-11-09T10:17:09.178Z,102053.63
2023-11-09T10:19:44.362Z,102065.94
2023-11-09T10:22:12.653Z,102065.94
2023-11-09T10:24:41.505Z,102063.28
2023-11-09T10:27:10.797Z,102070.31
2023-11-09T10:29:39.973Z,102071.16
2023-11-09T10:32:21.253Z,102070.31
2023-11-09T10:34:50.211Z,102064.13
2023-11-09T10:37:20.082Z,102065.03
2023-11-09T10:39:51.027Z,102061.47
2023-11-09T10:42:19.686Z,102057.09
2023-11-09T10:44:48.248Z,102057.97
2023-11-09T10:47:16.747Z,102063.22
2023-11-09T10:49:46.587Z,102065.88
2023-11-09T10:52:17.423Z,102063.22
2023-11-09T10:54:50.705Z,102057.94
2023-11-09T10:57:23.114Z,102055.25
2023-11-09T10:59:52.405Z,102063.16
2023-11-09T11:02:21.796Z,102051.75
2023-11-09T11:04:57.945Z,102060.53
2023-11-09T11:07:40.309Z,102051.72
2023-11-09T11:10:18.442Z,102049.94
2023-11-09T11:12:46.910Z,102051.72
2023-11-09T11:15:19.102Z,102056.06
2023-11-09T11:18:06.474Z,102055.19
2023-11-09T11:21:29.372Z,102050.78
2023-11-09T11:24:45.010Z,102060.41
2023-11-09T11:27:26.003Z,102063.94
2023-11-09T11:29:55.496Z,102065.69
2023-11-09T11:32:24.288Z,102070.94
2023-11-09T11:34:57.751Z,102066.53
2023-11-09T11:37:28.645Z,102064.75
2023-11-09T11:39:57.037Z,102062.13
2023-11-09T11:42:27.683Z,102063.88
2023-11-09T11:44:59.377Z,102061.22
2023-11-09T11:47:32.709Z,102060.31
2023-11-09T11:50:03.166Z,102051.53
2023-11-09T11:52:34.942Z,102046.25
2023-11-09T11:55:12.294Z,102051.56
2023-11-09T11:58:15.912Z,102056.88
2023-11-09T12:00:45.835Z,102052.47
2023-11-09T12:03:14.984Z,102063.00
2023-11-09T12:05:45.413Z,102052.44
2023-11-09T12:08:14.826Z,102054.16
2023-11-09T12:10:46.958Z,102059.44
2023-11-09T12:13:16.687Z,102055.03
2023-11-09T12:15:45.557Z,102060.28
2023-11-09T12:18:14.254Z,102062.91
2023-11-09T12:20:42.534Z,102064.63
2023-11-09T12:23:13.783Z,102065.50
2023-11-09T12:25:53.604Z,102068.13
2023-11-09T12:28:23.996Z,102069.88
2023-11-09T12:30:53.719Z,102070.75
2023-11-09T12:33:22.757Z,102071.56
2023-11-09T12:36:07.441Z,102082.16
2023-11-09T12:38:36.867Z,102072.47
2023-11-09T12:41:08.661Z,102077.75
2023-11-09T12:43:41.827Z,102075.13
2023-11-09T12:46:16.608Z,102076.00
2023-11-09T12:48:53.692Z,102079.50
2023-11-09T12:51:26.751Z,102077.75
2023-11-09T12:53:57.180Z,102088.28
2023-11-09T12:56:33.077Z,102090.03
2023-11-09T12:59:09.749Z,102092.63
2023-11-09T13:01:38.023Z,102092.59
2023-11-09T13:04:07.782Z,102094.31
2023-11-09T13:06:36.031Z,102095.22
2023-11-09T13:09:10.032Z,102096.97
2023-11-09T13:11:45.240Z,102101.34
2023-11-09T13:14:18.598Z,102107.44
2023-11-09T13:16:47.238Z,102104.81
2023-11-09T13:19:28.063Z,102108.31
2023-11-09T13:21:56.587Z,102107.41
2023-11-09T13:24:31.352Z,102114.41
2023-11-09T13:27:00.743Z,102114.38
2023-11-09T13:29:29.779Z,102116.06
2023-11-09T13:31:58.929Z,102113.41
2023-11-09T13:34:45.131Z,102118.66
2023-11-09T13:37:22.580Z,102114.28
2023-11-09T13:40:09.662Z,102116.88
2023-11-09T13:42:39.252Z,102116.03
2023-11-09T13:45:28.366Z,102113.38
2023-11-09T13:47:57.312Z,102113.38
2023-11-09T13:50:28.716Z,102115.09
2023-11-09T13:52:58.498Z,102111.53
2023-11-09T13:55:58.939Z,102110.66
2023-11-09T13:58:27.603Z,102109.78
2023-11-09T14:01:02.422Z,102114.16
2023-11-09T14:03:34.346Z,102115.97
2023-11-09T14:06:02.599Z,102120.34
2023-11-09T14:08:30.821Z,102126.47
2023-11-09T14:10:59.141Z,102119.38
2023-11-09T14:13:33.533Z,102123.69
2023-11-09T14:16:17.452Z,102128.06
2023-11-09T14:19:24.129Z,102128.94
2023-11-09T14:21:54.012Z,102129.78
2023-11-09T14:24:25.541Z,102139.44
2023-11-09T14:26:56.016Z,102134.16
2023-11-09T14:29:26.178Z,102141.13
2023-11-09T14:31:54.430Z,102142.94
2023-11-09T14:34:23.272Z,102139.38
2023-11-09T14:36:52.589Z,102142.00
2023-11-09T14:39:39.846Z,102144.63
2023-11-09T14:42:08.845Z,102145.53
2023-11-09T14:44:40.389Z,102143.75
2023-11-09T14:47:12.325Z,102139.38
2023-11-09T14:49:51.485Z,102142.88
2023-11-09T14:52:23.259Z,102140.25
2023-11-09T14:54:52.202Z,102135.91
2023-11-09T14:57:21.293Z,102136.75
2023-11-09T14:59:49.559Z,102144.63
2023-11-09T15:02:22.447Z,102143.81
2023-11-09T15:04:58.012Z,102151.75
2023-11-09T15:07:26.589Z,102149.19
2023-11-09T15:09:59.536Z,102151.84
2023-11-09T15:12:29.975Z,102152.78
2023-11-09T15:14:58.213Z,102160.69
2023-11-09T15:17:27.556Z,102160.72
2023-11-09T15:19:56.615Z,102169.53
2023-11-09T15:22:26.941Z,102169.56
2023-11-09T15:24:55.196Z,102169.59
2023-11-09T15:27:23.437Z,102169.66
2023-11-09T15:29:51.735Z,102167.97
2023-11-09T15:32:23.283Z,102171.53
2023-11-09T15:34:52.761Z,102178.66
2023-11-09T15:37:22.033Z,102178.72
2023-11-09T15:40:12.728Z,102177.88
2023-11-09T15:42:39.084Z,102183.22
2023-11-09T15:45:08.758Z,102186.81
2023-11-09T15:47:41.451Z,102195.69
2023-11-09T15:50:12.911Z,102201.91
2023-11-09T15:52:41.467Z,102207.22
2023-11-09T15:55:11.253Z,102206.41
2023-11-09T15:57:39.973Z,102204.72
2023-11-09T16:00:14.353Z,102212.72
2023-11-09T16:02:43.864Z,102204.84
2023-11-09T16:05:13.414Z,102201.38
2023-11-09T16:07:43.083Z,102201.41
2023-11-09T16:10:14.769Z,102204.97
2023-11-09T16:12:43.090Z,102208.53
2023-11-09T16:15:11.875Z,102215.59
2023-11-09T16:17:40.263Z,102217.38
2023-11-09T16:20:19.069Z,102214.78
2023-11-09T16:22:47.352Z,102216.56
2023-11-09T16:25:20.780Z,102217.47
2023-11-09T16:27:51.490Z,102210.44
2023-11-09T16:30:41.479Z,102218.34
2023-11-09T16:33:10.686Z,102225.41
2023-11-09T16:35:39.096Z,102220.13
2023-11-09T16:38:07.539Z,102223.66
2023-11-09T16:40:36.108Z,102218.41
2023-11-09T16:43:05.279Z,102219.28
2023-11-09T16:45:33.624Z,102210.47
2023-11-09T16:48:01.909Z,102215.75
2023-11-09T16:50:30.199Z,102211.31
2023-11-09T16:52:58.602Z,102208.66
2023-11-09T16:55:26.961Z,102204.25
2023-11-09T16:57:56.043Z,102206.91
2023-11-09T17:00:25.443Z,102197.19
2023-11-09T17:02:54.154Z,102197.16
2023-11-09T17:05:22.689Z,102204.19
2023-11-09T17:07:51.113Z,102199.75
2023-11-09T17:10:19.729Z,102196.22
2023-11-09T17:12:48.093Z,102198.81
2023-11-09T17:15:16.613Z,102189.06
2023-11-09T17:17:45.379Z,102186.34
2023-11-09T17:20:14.443Z,102185.44
2023-11-09T17:22:46.167Z,102184.47
2023-11-09T17:25:16.197Z,102182.66
2023-11-09T17:27:45.253Z,102176.41
2023-11-09T17:30:13.738Z,102178.97
2023-11-09T17:32:42.158Z,102178.94
2023-11-09T17:35:10.937Z,102179.75
2023-11-09T17:37:39.970Z,102179.63
2023-11-09T17:40:09.221Z,102180.44
2023-11-09T17:42:40.216Z,102173.28
2023-11-09T17:45:09.567Z,102175.81
2023-11-09T17:47:41.105Z,102173.91
2023-11-09T17:50:10.644Z,102173.84
2023-11-09T17:52:46.932Z,102174.63
2023-11-09T17:55:15.711Z,102166.56
2023-11-09T17:57:45.027Z,102161.97
2023-11-09T18:00:16.326Z,102162.69
2023-11-09T18:02:45.869Z,102156.38
2023-11-09T18:05:17.294Z,102145.53
2023-11-09T18:07:46.379Z,102146.25
2023-11-09T18:10:14.881Z,102145.19
2023-11-09T18:12:44.380Z,102148.59
2023-11-09T18:15:12.861Z,102152.09
2023-11-09T18:17:41.169Z,102156.38
2023-11-09T18:20:14.482Z,102154.41
2023-11-09T18:22:42.950Z,102152.44
2023-11-09T18:25:12.124Z,102155.75
2023-11-09T18:27:41.262Z,102154.66
2023-11-09T18:30:11.413Z,102149.03
2023-11-09T18:32:40.256Z,102146.09
2023-11-09T18:35:09.447Z,102151.09
2023-11-09T18:37:37.894Z,102153.44
2023-11-09T18:40:08.235Z,102146.75
2023-11-09T18:42:37.071Z,102147.34
2023-11-09T18:45:07.020Z,102147.81
2023-11-09T18:47:35.392Z,102149.22
2023-11-09T18:52:35.190Z,102146.22
2023-11-09T18:55:04.091Z,102147.94
2023-11-09T18:57:32.411Z,102140.72
2023-11-09T19:00:01.678Z,102138.06
2023-11-09T19:02:30.046Z,102138.00
2023-11-09T19:04:58.484Z,102133.31
2023-11-09T19:07:26.883Z,102132.22
2023-11-09T19:09:55.190Z,102124.84
2023-11-09T19:12:23.559Z,102122.66
2023-11-09T19:14:51.952Z,102112.72
2023-11-09T19:17:20.323Z,102115.25
2023-11-09T19:19:48.675Z,102107.91
2023-11-09T19:24:48.676Z,102100.28
2023-11-09T19:27:17.015Z,102094.59
2023-11-09T19:29:45.619Z,102092.56
2023-11-09T19:32:14.450Z,102078.03
2023-11-09T19:34:42.785Z,102075.22
2023-11-09T19:37:11.088Z,102078.59
2023-11-09T19:39:40.557Z,102059.75
2023-11-09T19:42:09.246Z,102058.75
2023-11-09T19:44:37.558Z,102054.16
2023-11-09T19:47:06.253Z,102046.00
2023-11-09T19:49:34.671Z,102039.44
2023-11-09T19:52:03.076Z,102029.34
2023-11-09T19:54:32.438Z,102028.03
2023-11-09T19:57:00.714Z,102030.34
2023-11-09T19:59:32.927Z,102031.66
2023-11-09T20:02:01.355Z,102032.16
2023-11-09T20:04:29.635Z,102029.16
2023-11-09T20:06:58.416Z,102035.13
2023-11-09T20:09:26.719Z,102027.84
2023-11-09T20:11:55.289Z,102025.00
2023-11-09T20:14:24.178Z,102021.16
2023-11-09T20:16:52.410Z,102019.75
2023-11-09T20:19:20.833Z,102019.06
2023-11-09T20:21:49.204Z,102012.47
2023-11-09T20:24:17.460Z,102002.28
2023-11-09T20:26:45.845Z,102001.91
2023-11-09T20:29:16.131Z,101989.19
2023-11-09T20:31:44.655Z,101987.47
2023-11-09T20:34:13.005Z,101990.63
2023-11-09T20:36:41.771Z,101983.03
2023-11-09T20:39:13.392Z,101979.13
2023-11-09T20:41:42.915Z,101974.41
2023-11-09T20:44:11.181Z,101979.34
2023-11-09T20:46:40.018Z,101970.03
2023-11-09T20:49:08.576Z,101968.00
2023-11-09T20:51:36.900Z,101970.31
2023-11-09T20:54:05.472Z,101958.47
2023-11-09T20:56:34.016Z,101943.09
2023-11-09T20:59:02.269Z,101950.81
2023-11-09T21:01:30.581Z,101951.59
2023-11-09T21:03:59.074Z,101950.44
2023-11-09T21:06:27.557Z,101934.88
2023-11-09T21:08:55.942Z,101939.84
2023-11-09T21:11:24.171Z,101928.84
2023-11-09T21:13:54.565Z,101933.66
2023-11-09T21:16:23.151Z,101932.16
2023-11-09T21:18:51.533Z,101930.91
2023-11-09T21:21:19.886Z,101924.22
2023-11-09T21:23:48.432Z,101926.69
2023-11-09T21:26:21.199Z,101925.81
2023-11-09T21:28:50.313Z,101927.50
2023-11-09T21:31:22.075Z,101926.25
2023-11-09T21:33:50.996Z,101924.28
2023-11-09T21:36:19.336Z,101920.34
2023-11-09T21:38:49.686Z,101920.75
2023-11-09T21:41:18.995Z,101914.16
2023-11-09T21:43:48.907Z,101908.41
2023-11-09T21:46:18.485Z,101901.78
2023-11-09T21:48:47.245Z,101901.47
2023-11-09T21:51:15.654Z,101912.94
2023-11-09T21:53:44.238Z,101905.50
2023-11-09T21:56:13.341Z,101903.72
2023-11-09T21:58:41.610Z,101903.44
2023-11-09T22:01:09.847Z,101895.72
2023-11-09T22:03:38.260Z,101896.25
2023-11-09T22:06:08.136Z,101898.38
2023-11-09T22:08:38.042Z,101895.84
2023-11-09T22:11:06.956Z,101893.22
2023-11-09T22:13:38.531Z,101887.03
2023-11-09T22:16:07.473Z,101888.06
2023-11-09T22:18:35.728Z,101882.84
2023-11-09T22:21:04.220Z,101893.66
2023-11-09T22:23:32.507Z,101895.47
2023-11-09T22:26:00.912Z,101897.50
2023-11-09T22:28:29.357Z,101894.09
2023-11-09T22:30:57.640Z,101891.47
2023-11-09T22:33:26.046Z,101895.97
2023-11-09T22:35:54.380Z,101896.91
2023-11-09T22:38:22.666Z,101898.88
2023-11-09T22:40:51.210Z,101889.00
2023-11-09T22:43:21.408Z,101885.44
2023-11-09T22:45:52.452Z,101882.81
2023-11-09T22:48:21.991Z,101879.28
2023-11-09T22:50:53.119Z,101877.59
2023-11-09T22:53:21.725Z,101874.13
2023-11-09T22:55:50.406Z,101879.63
2023-11-09T22:58:18.766Z,101877.97
2023-11-09T23:00:58.023Z,101879.88
2023-11-09T23:03:26.361Z,101891.63
2023-11-09T23:05:56.974Z,101891.78
2023-11-09T23:08:25.386Z,101894.56
2023-11-09T23:10:54.182Z,101885.03
2023-11-09T23:13:22.709Z,101891.66
2023-11-09T23:15:51.014Z,101885.75
2023-11-09T23:18:20.803Z,101886.13
2023-11-09T23:20:49.221Z,101879.22
2023-11-09T23:23:17.501Z,101876.78
2023-11-09T23:25:47.478Z,101877.94
2023-11-09T23:28:16.205Z,101870.09
2023-11-09T23:30:45.557Z,101867.50
2023-11-09T23:33:13.977Z,101869.34
2023-11-09T23:35:42.950Z,101871.16
2023-11-09T23:38:11.259Z,101871.13
2023-11-09T23:40:39.591Z,101876.41
2023-11-09T23:43:07.937Z,101870.97
2023-11-09T23:45:36.394Z,101876.41
2023-11-09T23:48:12.640Z,101876.47
2023-11-09T23:50:42.491Z,101880.31
2023-11-09T23:53:11.665Z,101876.22
2023-11-09T23:55:40.044Z,101893.44
2023-11-09T23:58:09.922Z,101876.69
